Time;durP1;ratioP1;P1;durP2;ratioP2;P2;SDS_P1;SDS_P2;PMS_P1;PMS_P2;Temp;Humidity;BMP_temperature;BMP_pressure;BME280_temperature;BME280_humidity;BME280_pressure;Samples;Min_cycle;Max_cycle;Signal;HPM_P1;HPM_P2
2020/12/15 00:02:15;;;;;;;11.60;9.02;;;;;;;15.75;34.63;94719.75;5098146;28;20050;-39
2020/12/15 00:04:42;;;;;;;10.63;8.60;;;;;;;15.95;33.77;94716.50;5098463;28;20048;-40
2020/12/15 00:07:09;;;;;;;10.55;9.10;;;;;;;15.96;34.21;94715.44;5098230;28;20047;-40
2020/12/15 00:09:36;;;;;;;9.10;8.10;;;;;;;16.07;34.64;94720.38;5097838;28;20051;-40
2020/12/15 00:12:03;;;;;;;9.27;8.27;;;;;;;16.03;34.39;94721.00;5098238;28;20051;-39
2020/12/15 00:14:30;;;;;;;11.10;9.05;;;;;;;16.06;33.20;94713.56;5098105;28;20047;-40
2020/12/15 00:16:58;;;;;;;11.63;9.32;;;;;;;16.18;33.30;94713.72;5098171;28;20055;-40
2020/12/15 00:19:26;;;;;;;12.30;9.27;;;;;;;15.98;34.57;94713.25;5097652;28;20048;-41
2020/12/15 00:21:54;;;;;;;11.60;9.25;;;;;;;16.00;34.00;94711.06;5098105;28;20039;-41
2020/12/15 00:24:21;;;;;;;11.70;9.65;;;;;;;15.82;34.58;94709.53;5098026;28;20051;-41
2020/12/15 00:26:48;;;;;;;11.13;9.30;;;;;;;16.02;33.67;94716.81;5071376;28;20077;-40
2020/12/15 00:29:16;;;;;;;10.90;9.60;;;;;;;15.39;35.25;94712.09;5094553;28;20049;-41
2020/12/15 00:31:44;;;;;;;12.15;9.93;;;;;;;15.13;35.26;94714.69;5097501;28;20052;-41
2020/12/15 00:34:11;;;;;;;11.38;9.85;;;;;;;15.01;34.96;94711.84;5090028;28;20052;-41
2020/12/15 00:36:38;;;;;;;11.80;9.27;;;;;;;15.50;34.38;94712.56;5078548;28;20052;-40
2020/12/15 00:39:06;;;;;;;11.10;9.25;;;;;;;15.65;34.11;94714.81;5088062;28;20044;-41
2020/12/15 00:41:33;;;;;;;10.65;8.90;;;;;;;15.69;34.80;94715.72;5076987;28;20044;-41
2020/12/15 00:44:00;;;;;;;9.63;7.85;;;;;;;15.53;34.52;94709.31;5077275;28;20048;-40
2020/12/15 00:46:27;;;;;;;10.13;8.20;;;;;;;15.64;34.20;94718.53;5077359;28;20470;-41
2020/12/15 00:48:54;;;;;;;10.10;8.20;;;;;;;15.81;33.90;94707.97;5077138;28;20047;-41
2020/12/15 00:51:21;;;;;;;10.65;8.68;;;;;;;15.78;33.63;94708.59;5076902;28;20041;-41
2020/12/15 00:53:50;;;;;;;11.23;8.57;;;;;;;16.03;33.55;94710.44;5087819;28;20450;-41
2020/12/15 00:56:21;;;;;;;10.32;8.27;;;;;;;15.77;33.63;94707.03;5069235;28;20458;-40
2020/12/15 00:58:48;;;;;;;9.70;8.50;;;;;;;15.75;34.24;94703.94;5088093;28;20047;-41
2020/12/15 01:01:16;;;;;;;9.57;7.90;;;;;;;15.60;34.11;94697.25;5091376;28;20044;-41
2020/12/15 01:03:44;;;;;;;10.98;8.23;;;;;;;15.78;33.85;94703.31;5079424;28;20442;-40
2020/12/15 01:06:18;;;;;;;10.13;8.20;;;;;;;15.65;34.52;94701.63;5097201;28;20063;-40
2020/12/15 01:08:47;;;;;;;8.70;6.93;;;;;;;15.75;33.83;94703.94;5079257;28;20047;-40
2020/12/15 01:11:15;;;;;;;8.40;6.80;;;;;;;15.51;33.92;94695.69;5079275;28;20055;-40
2020/12/15 01:13:44;;;;;;;7.97;6.95;;;;;;;15.53;33.88;94698.78;5079181;28;20443;-41
2020/12/15 01:16:12;;;;;;;8.70;7.30;;;;;;;15.45;33.89;94687.16;5079447;28;20055;-40
2020/12/15 01:18:45;;;;;;;9.60;8.25;;;;;;;15.37;34.13;94693.97;5079039;28;20366;-39
2020/12/15 01:21:28;;;;;;;8.27;6.97;;;;;;;15.36;33.80;94697.69;5078934;28;20054;-40
2020/12/15 01:23:56;;;;;;;9.32;7.15;;;;;;;15.52;34.04;94705.13;5097052;28;20043;-40
2020/12/15 01:26:24;;;;;;;9.88;7.60;;;;;;;15.42;33.58;94704.34;5096728;28;20044;-40
2020/12/15 01:28:51;;;;;;;9.50;7.10;;;;;;;15.46;33.82;94698.47;5078640;28;20051;-40
2020/12/15 01:31:24;;;;;;;9.45;7.47;;;;;;;15.47;33.92;94703.44;5079320;28;20051;-41
2020/12/15 01:34:00;;;;;;;9.85;7.88;;;;;;;15.41;33.82;94704.66;5076345;28;20395;-41
2020/12/15 01:36:49;;;;;;;8.77;7.68;;;;;;;15.47;34.06;94710.56;5058365;28;20044;-41
2020/12/15 01:39:20;;;;;;;9.43;7.75;;;;;;;15.35;34.10;94706.69;5064109;28;20047;-40
2020/12/15 01:41:54;;;;;;;8.48;7.38;;;;;;;15.63;33.48;94711.69;5058329;28;20052;-42
2020/12/15 01:44:21;;;;;;;10.18;8.43;;;;;;;15.46;33.50;94709.78;5058526;28;20056;-41
2020/12/15 01:46:50;;;;;;;9.40;7.93;;;;;;;15.56;33.73;94719.25;5058665;28;20055;-41
2020/12/15 01:49:22;;;;;;;8.27;7.43;;;;;;;15.43;33.81;94713.03;5083095;28;20040;-40
2020/12/15 01:51:57;;;;;;;9.95;8.40;;;;;;;15.43;33.62;94713.81;5057220;28;20048;-40
2020/12/15 01:54:29;;;;;;;8.90;7.78;;;;;;;15.22;33.85;94717.31;5042509;28;20067;-40
2020/12/15 01:56:57;;;;;;;9.30;7.90;;;;;;;15.56;33.96;94706.06;5058403;28;20375;-40
2020/12/15 01:59:42;;;;;;;9.65;7.90;;;;;;;15.34;34.14;94715.63;5057780;28;20053;-40
2020/12/15 02:02:13;;;;;;;9.07;7.55;;;;;;;15.41;34.10;94718.63;5058448;28;20051;-40
2020/12/15 02:04:47;;;;;;;;;;;;;;;15.14;34.41;94710.97;5058783;28;20044;-40
2020/12/15 02:07:15;;;;;;;9.05;7.68;;;;;;;15.47;34.30;94710.56;5075698;28;19951;-41
2020/12/15 02:09:42;;;;;;;8.27;7.30;;;;;;;15.39;33.75;94712.88;5057917;28;20052;-41
2020/12/15 02:12:21;;;;;;;9.57;8.00;;;;;;;15.40;34.15;94718.94;5058137;28;20367;-40
2020/12/15 02:14:48;;;;;;;8.60;7.50;;;;;;;15.28;33.92;94711.59;5058102;28;20448;-40
2020/12/15 02:17:24;;;;;;;10.80;7.80;;;;;;;15.38;34.18;94705.28;5058009;28;20053;-41
2020/12/15 02:20:23;;;;;;;8.27;7.28;;;;;;;15.46;33.67;94711.66;5041469;28;20460;-41
2020/12/15 02:23:13;;;;;;;8.15;7.18;;;;;;;15.47;33.50;94713.19;5075310;28;20040;-41
2020/12/15 02:25:47;;;;;;;8.35;7.45;;;;;;;15.48;33.69;94709.47;5075524;28;20040;-41
2020/12/15 02:28:14;;;;;;;8.18;7.28;;;;;;;15.34;34.09;94709.59;5066685;28;20040;-40
2020/12/15 02:30:42;;;;;;;8.77;6.90;;;;;;;15.40;33.90;94717.06;5061142;28;20048;-41
2020/12/15 02:33:21;;;;;;;8.65;7.22;;;;;;;15.52;33.73;94720.94;5077612;28;20063;-41
2020/12/15 02:35:49;;;;;;;8.52;7.25;;;;;;;15.21;34.13;94716.56;5078030;28;20362;-41
2020/12/15 02:38:17;;;;;;;9.68;7.95;;;;;;;15.35;34.09;94717.22;5077579;28;20036;-40
2020/12/15 02:40:44;;;;;;;8.93;7.50;;;;;;;15.54;33.35;94710.88;5077615;28;20044;-41
2020/12/15 02:43:14;;;;;;;7.50;6.68;;;;;;;15.34;33.84;94720.91;5095617;28;20048;-40
2020/12/15 02:45:49;;;;;;;8.35;7.05;;;;;;;15.37;34.13;94719.53;5077696;28;20081;-40
2020/12/15 02:48:21;;;;;;;9.30;7.75;;;;;;;15.52;34.03;94713.03;5077518;28;20059;-40
2020/12/15 02:50:50;;;;;;;8.40;7.18;;;;;;;15.41;33.89;94720.47;5077463;28;20359;-41
2020/12/15 02:53:27;;;;;;;8.38;7.40;;;;;;;15.37;33.92;94720.31;5077766;28;20047;-40
2020/12/15 02:55:59;;;;;;;7.80;6.97;;;;;;;15.40;34.08;94724.97;5077584;28;20055;-41
2020/12/15 02:58:37;;;;;;;7.82;7.03;;;;;;;15.33;34.02;94731.75;5077156;28;20050;-41
2020/12/15 03:01:06;;;;;;;7.93;6.93;;;;;;;15.54;33.46;94726.69;5064897;28;20051;-40
2020/12/15 03:03:34;;;;;;;8.98;7.38;;;;;;;15.37;33.84;94724.81;5077030;28;20049;-40
2020/12/15 03:06:13;;;;;;;8.57;7.47;;;;;;;15.43;33.73;94723.56;5061599;28;20355;-41
2020/12/15 03:08:44;;;;;;;8.75;7.00;;;;;;;15.39;33.94;94728.69;5061823;28;20048;-40
2020/12/15 03:11:12;;;;;;;7.85;6.88;;;;;;;15.26;34.38;94728.78;5061532;28;20051;-40
2020/12/15 03:13:41;;;;;;;8.48;7.28;;;;;;;15.16;34.22;94735.13;5061543;28;20049;-40
2020/12/15 03:16:10;;;;;;;9.82;7.25;;;;;;;15.55;33.66;94733.50;5061548;28;20083;-40
2020/12/15 03:18:37;;;;;;;8.18;6.78;;;;;;;15.38;33.79;94737.66;5061296;28;20059;-41
2020/12/15 03:21:07;;;;;;;7.78;6.80;;;;;;;15.45;34.04;94736.44;5061223;28;20040;-41
2020/12/15 03:23:36;;;;;;;7.20;6.50;;;;;;;15.40;33.86;94740.78;5078868;28;20040;-41
2020/12/15 03:26:04;;;;;;;8.20;6.78;;;;;;;15.32;34.17;94738.88;5061036;28;20055;-41
2020/12/15 03:28:32;;;;;;;8.40;7.07;;;;;;;15.44;33.99;94740.94;5072320;28;20040;-41
2020/12/15 03:31:04;;;;;;;8.27;7.38;;;;;;;15.49;34.14;94738.16;5080574;28;20055;-44
2020/12/15 03:33:35;;;;;;;7.55;6.75;;;;;;;15.60;33.92;94749.19;5081121;28;20052;-40
2020/12/15 03:36:02;;;;;;;7.05;6.18;;;;;;;15.49;34.02;94740.00;5080837;28;20051;-41
2020/12/15 03:38:30;;;;;;;7.65;6.35;;;;;;;15.53;33.92;94752.25;5080951;28;20055;-40
2020/12/15 03:40:58;;;;;;;7.50;6.65;;;;;;;15.76;33.60;94752.94;5080895;28;20055;-41
2020/12/15 03:43:39;;;;;;;7.03;6.18;;;;;;;15.58;33.95;94753.97;5081152;28;20040;-41
2020/12/15 03:46:27;;;;;;;7.00;6.30;;;;;;;15.56;33.96;94756.13;5067703;28;20051;-41
2020/12/15 03:48:59;;;;;;;7.35;6.00;;;;;;;15.61;33.61;94766.56;5080119;28;20044;-40
2020/12/15 03:51:28;;;;;;;7.18;6.13;;;;;;;15.67;33.57;94765.34;5080581;28;20048;-41
2020/12/15 03:54:13;;;;;;;6.93;5.95;;;;;;;15.43;34.08;94766.50;5098683;28;20048;-40
2020/12/15 03:57:00;;;;;;;7.22;6.22;;;;;;;15.57;33.79;94765.59;5098481;28;20400;-40
2020/12/15 03:59:28;;;;;;;8.27;6.80;;;;;;;15.50;33.80;94778.44;5062358;28;20044;-41
2020/12/15 04:01:57;;;;;;;8.90;7.15;;;;;;;15.67;33.86;94770.63;5060534;28;20048;-41
2020/12/15 04:04:24;;;;;;;7.75;6.90;;;;;;;15.52;33.91;94778.91;5060620;28;20049;-41
2020/12/15 04:06:52;;;;;;;8.10;6.68;;;;;;;15.70;33.44;94785.81;5060565;28;20051;-40
2020/12/15 04:09:31;;;;;;;7.53;6.07;;;;;;;15.52;34.04;94784.97;5059971;28;20052;-40
2020/12/15 04:11:58;;;;;;;6.97;6.28;;;;;;;15.64;33.54;94795.72;5060980;28;20055;-41
2020/12/15 04:14:25;;;;;;;6.85;6.00;;;;;;;15.39;34.07;94794.53;5059504;28;20052;-41
2020/12/15 04:16:52;;;;;;;7.80;6.25;;;;;;;15.48;33.89;94793.78;5060253;28;20048;-40
2020/12/15 04:19:20;;;;;;;7.95;6.75;;;;;;;15.63;33.75;94796.81;5059278;28;20473;-41
2020/12/15 04:21:48;;;;;;;7.18;6.30;;;;;;;15.62;33.55;94794.47;5060162;28;20459;-39
2020/12/15 04:24:17;;;;;;;7.57;6.45;;;;;;;15.66;33.60;94792.78;5060302;28;20051;-40
2020/12/15 04:26:54;;;;;;;7.80;6.80;;;;;;;15.52;34.02;94794.72;5060180;28;20115;-41
2020/12/15 04:29:22;;;;;;;7.63;6.40;;;;;;;15.73;33.60;94806.28;5077721;28;20486;-40
2020/12/15 04:32:00;;;;;;;7.18;6.47;;;;;;;15.72;33.23;94799.44;5080108;28;20048;-40
2020/12/15 04:34:31;;;;;;;8.57;6.75;;;;;;;15.66;33.30;94809.38;5079806;28;20064;-40
2020/12/15 04:36:59;;;;;;;8.52;7.40;;;;;;;15.77;33.21;94804.56;5079924;28;20478;-41
2020/12/15 04:39:38;;;;;;;8.85;7.50;;;;;;;15.70;33.14;94812.94;5078576;28;20048;-41
2020/12/15 04:42:05;;;;;;;9.25;7.15;;;;;;;15.77;33.21;94812.47;5079828;28;20055;-40
2020/12/15 04:44:36;;;;;;;8.13;7.05;;;;;;;15.81;33.25;94808.16;5079810;28;20477;-40
2020/12/15 04:47:12;;;;;;;8.13;7.07;;;;;;;15.72;33.41;94820.53;5079608;28;20051;-41
2020/12/15 04:50:01;;;;;;;9.48;7.18;;;;;;;15.63;33.53;94811.84;5079815;28;20048;-40
2020/12/15 04:52:51;;;;;;;8.25;6.45;;;;;;;15.68;33.32;94824.88;5079799;28;20466;-39
2020/12/15 04:55:32;;;;;;;9.05;6.55;;;;;;;15.82;33.10;94824.75;5079495;28;20048;-40
2020/12/15 04:58:01;;;;;;;7.38;6.38;;;;;;;15.67;33.43;94823.31;5062806;28;20051;-40
2020/12/15 05:00:30;;;;;;;8.13;6.50;;;;;;;15.65;33.38;94820.22;5079358;28;20039;-41
2020/12/15 05:03:22;;;;;;;7.82;6.38;;;;;;;15.82;33.16;94830.78;5079456;28;20394;-41
2020/12/15 05:05:51;;;;;;;8.15;6.45;;;;;;;15.76;33.10;94829.38;5062703;28;20067;-40
2020/12/15 05:08:21;;;;;;;7.75;6.55;;;;;;;15.85;33.20;94814.34;5079002;28;20102;-41
2020/12/15 05:10:58;;;;;;;9.00;7.03;;;;;;;15.86;33.32;94825.66;5078991;28;20040;-40
2020/12/15 05:13:35;;;;;;;9.43;6.65;;;;;;;15.91;33.08;94833.47;5063935;28;20052;-40
2020/12/15 05:16:02;;;;;;;7.70;6.90;;;;;;;15.99;32.92;94830.81;5062620;28;20056;-41
2020/12/15 05:18:50;;;;;;;7.43;6.43;;;;;;;16.06;32.51;94829.59;5096119;28;20039;-41
2020/12/15 05:21:27;;;;;;;8.20;6.68;;;;;;;16.03;32.85;94837.03;5078734;28;20044;-40
2020/12/15 05:24:01;;;;;;;7.57;6.47;;;;;;;16.02;32.92;94835.47;5079040;28;20056;-41
2020/12/15 05:26:42;;;;;;;7.18;6.47;;;;;;;15.98;33.29;94833.78;5096386;28;20048;-41
2020/12/15 05:29:17;;;;;;;7.53;6.05;;;;;;;16.11;32.69;94845.25;5061424;28;20048;-41
2020/12/15 05:32:01;;;;;;;7.20;6.18;;;;;;;16.25;32.66;94848.53;5058925;28;20049;-40
2020/12/15 05:34:40;;;;;;;6.45;5.22;;;;;;;16.23;32.83;94840.16;5058996;28;20063;-41
2020/12/15 05:37:29;;;;;;;6.68;5.70;;;;;;;16.03;32.79;94846.81;5076390;28;20098;-41
2020/12/15 05:40:37;;;;;;;5.90;5.10;;;;;;;16.22;32.59;94849.16;4985810;28;20050;-41
2020/12/15 05:43:26;;;;;;;6.32;5.15;;;;;;;16.27;32.35;94856.91;4994284;28;20054;-40
2020/12/15 05:45:55;;;;;;;6.13;5.07;;;;;;;16.06;32.45;94855.97;5044639;28;20048;-40
2020/12/15 05:48:27;;;;;;;5.60;5.00;;;;;;;15.53;33.57;94846.34;5096109;28;20059;-41
2020/12/15 05:50:58;;;;;;;7.15;5.20;;;;;;;15.92;33.18;94856.88;5096140;28;20048;-41
2020/12/15 05:53:25;;;;;;;7.07;5.80;;;;;;;16.17;32.73;94857.22;5094132;28;20051;-40
2020/12/15 05:55:52;;;;;;;7.45;6.03;;;;;;;16.31;32.69;94860.47;5095520;28;20048;-41
2020/12/15 05:58:19;;;;;;;7.13;5.88;;;;;;;16.31;33.16;94858.63;5078372;28;20051;-43
2020/12/15 06:00:46;;;;;;;8.25;6.80;;;;;;;16.58;32.00;94862.81;5083954;28;20076;-39
2020/12/15 06:03:13;;;;;;;8.40;6.82;;;;;;;16.28;32.25;94864.53;5094925;28;20055;-43
2020/12/15 06:05:40;;;;;;;7.28;6.32;;;;;;;16.24;32.50;94849.63;5076464;28;20044;-42
2020/12/15 06:08:07;;;;;;;7.53;6.40;;;;;;;16.47;32.42;94848.38;5075606;28;20055;-42
2020/12/15 06:10:35;;;;;;;10.25;8.15;;;;;;;15.77;33.35;94854.66;5075615;28;20044;-44
2020/12/15 06:13:03;;;;;;;10.15;8.52;;;;;;;15.75;33.85;94856.06;5075599;28;20075;-40
2020/12/15 06:15:30;;;;;;;10.57;8.32;;;;;;;15.75;33.94;94869.22;5075368;28;20048;-40
2020/12/15 06:18:00;;;;;;;12.50;10.40;;;;;;;15.86;33.40;94866.00;5075655;28;20048;-40
2020/12/15 06:20:37;;;;;;;11.75;9.07;;;;;;;15.71;33.87;94871.69;5075604;28;20051;-41
2020/12/15 06:23:10;;;;;;;12.82;10.50;;;;;;;15.86;33.37;94868.63;5058003;28;20052;-41
2020/12/15 06:25:38;;;;;;;12.07;9.38;;;;;;;15.78;34.02;94871.25;5075309;28;20078;-41
2020/12/15 06:28:06;;;;;;;15.63;10.57;;;;;;;15.56;34.07;94864.16;5075275;28;20083;-41
2020/12/15 06:30:34;;;;;;;15.05;11.30;;;;;;;15.47;34.57;94863.38;5075233;28;20056;-42
2020/12/15 06:33:03;;;;;;;11.45;8.23;;;;;;;15.31;35.10;94869.03;5075277;28;20047;-41
2020/12/15 06:35:32;;;;;;;13.18;9.15;;;;;;;15.06;35.76;94869.69;5092591;28;20082;-41
2020/12/15 06:38:00;;;;;;;10.23;8.07;;;;;;;15.24;35.29;94867.91;5094983;28;20044;-41
2020/12/15 06:40:41;;;;;;;15.15;12.02;;;;;;;16.00;33.85;94873.78;5095830;28;20047;-41
2020/12/15 06:43:09;;;;;;;12.15;10.52;;;;;;;16.45;32.84;94870.91;5074450;28;20043;-41
2020/12/15 06:45:36;;;;;;;12.52;9.68;;;;;;;16.73;31.98;94868.75;5088676;28;20044;-41
2020/12/15 06:48:05;;;;;;;12.48;10.18;;;;;;;17.06;31.17;94872.41;5066876;28;20057;-41
2020/12/15 06:50:42;;;;;;;12.30;10.00;;;;;;;15.89;34.11;94875.19;5085070;28;20063;-41
2020/12/15 06:53:16;;;;;;;16.27;11.32;;;;;;;16.21;33.39;94868.72;5075258;28;20056;-41
2020/12/15 06:55:44;;;;;;;16.80;11.90;;;;;;;16.40;33.17;94871.84;5057813;28;20051;-41
2020/12/15 06:58:18;;;;;;;15.38;12.32;;;;;;;16.24;33.76;94881.28;5080004;28;20055;-41
2020/12/15 07:00:45;;;;;;;16.83;12.98;;;;;;;16.34;33.29;94873.06;5057743;28;20047;-41
2020/12/15 07:03:12;;;;;;;14.27;11.05;;;;;;;16.51;33.06;94883.63;5075081;28;20059;-42
2020/12/15 07:05:39;;;;;;;20.52;15.30;;;;;;;16.44;33.11;94878.03;5074580;28;20049;-41
2020/12/15 07:08:08;;;;;;;15.57;10.63;;;;;;;16.62;33.42;94890.13;5057303;28;20351;-41
2020/12/15 07:10:39;;;;;;;26.55;20.30;;;;;;;16.94;32.53;94882.84;5075216;28;20051;-41
2020/12/15 07:13:06;;;;;;;32.30;28.20;;;;;;;16.94;31.80;94890.78;5075022;28;20048;-41
2020/12/15 07:15:34;;;;;;;13.27;9.93;;;;;;;17.04;32.03;94889.66;5074698;28;20059;-41
2020/12/15 07:18:02;;;;;;;8.75;7.22;;;;;;;17.06;31.91;94888.25;5074945;28;20048;-41
2020/12/15 07:20:30;;;;;;;8.18;6.80;;;;;;;17.09;31.50;94895.56;5074876;28;20474;-41
2020/12/15 07:22:57;;;;;;;5.40;4.70;;;;;;;17.05;31.88;94892.00;5074935;28;20048;-41
2020/12/15 07:25:24;;;;;;;4.70;4.20;;;;;;;17.22;31.63;94897.25;5090049;28;20047;-41
2020/12/15 07:27:51;;;;;;;6.68;5.75;;;;;;;17.12;31.58;94902.06;5094934;28;20439;-41
2020/12/15 07:30:20;;;;;;;15.27;12.25;;;;;;;17.93;30.42;94909.13;5086787;28;20055;-41
2020/12/15 07:32:48;;;;;;;14.63;13.00;;;;;;;18.06;30.19;94902.84;5074800;28;20041;-41
2020/12/15 07:35:24;;;;;;;15.13;12.63;;;;;;;18.73;29.30;94909.88;5074659;28;20048;-41
2020/12/15 07:37:58;;;;;;;12.93;10.82;;;;;;;19.30;27.99;94902.06;5074776;28;20051;-41
2020/12/15 07:40:28;;;;;;;15.05;11.13;;;;;;;20.07;27.08;94898.84;5074750;28;20045;-41
2020/12/15 07:43:03;;;;;;;13.75;11.50;;;;;;;18.93;28.34;94918.94;5074916;28;20047;-41
2020/12/15 07:45:32;;;;;;;15.10;11.70;;;;;;;19.29;27.97;94905.03;5074449;28;20045;-42
2020/12/15 07:48:03;;;;;;;14.38;12.23;;;;;;;18.13;29.55;94919.00;5074902;28;20359;-41
2020/12/15 07:50:31;;;;;;;15.93;13.23;;;;;;;17.87;29.81;94919.13;5077701;28;20052;-41
2020/12/15 07:53:09;;;;;;;15.82;12.77;;;;;;;18.42;29.43;94921.63;5078443;28;20772;-41
2020/12/15 07:55:37;;;;;;;17.33;14.70;;;;;;;18.24;29.48;94924.72;5078150;28;20052;-42
2020/12/15 07:58:13;;;;;;;16.88;13.57;;;;;;;18.47;28.98;94929.34;5078035;28;20044;-41
2020/12/15 08:00:40;;;;;;;17.42;13.90;;;;;;;18.32;29.30;94937.09;5078326;28;20044;-42
2020/12/15 08:03:08;;;;;;;14.05;11.68;;;;;;;18.97;28.23;94931.19;5077653;28;20048;-41
2020/12/15 08:05:35;;;;;;;14.70;11.30;;;;;;;18.84;28.20;94926.19;5096292;28;20051;-41
2020/12/15 08:08:03;;;;;;;11.93;10.38;;;;;;;18.27;29.24;94929.34;5098203;28;20261;-41
2020/12/15 08:10:32;;;;;;;12.10;10.75;;;;;;;17.95;30.16;94928.09;5098261;28;20044;-41
2020/12/15 08:13:04;;;;;;;13.02;11.13;;;;;;;18.24;29.80;94936.06;5098544;28;20481;-41
2020/12/15 08:15:39;;;;;;;13.70;10.68;;;;;;;18.39;29.50;94937.38;5080094;28;20047;-41
2020/12/15 08:18:10;;;;;;;15.55;10.88;;;;;;;18.13;30.11;94935.66;5098184;28;20052;-41
2020/12/15 08:20:41;;;;;;;14.60;10.88;;;;;;;19.10;28.48;94932.81;5080251;28;20052;-41
2020/12/15 08:23:15;;;;;;;11.15;9.35;;;;;;;18.06;29.90;94945.19;5080222;28;20377;-41
2020/12/15 08:25:43;;;;;;;11.82;9.15;;;;;;;18.08;29.59;94943.00;5097706;28;20044;-41
2020/12/15 08:28:21;;;;;;;10.20;9.07;;;;;;;18.61;29.00;94947.66;5097859;28;20048;-42
2020/12/15 08:30:49;;;;;;;11.32;8.50;;;;;;;19.21;28.15;94945.63;5097922;28;20461;-42
2020/12/15 08:33:28;;;;;;;9.10;7.60;;;;;;;19.66;27.04;94946.47;5087475;28;20044;-42
2020/12/15 08:35:57;;;;;;;10.57;7.78;;;;;;;18.94;28.84;94953.03;5077295;28;20051;-42
2020/12/15 08:38:26;;;;;;;11.35;7.90;;;;;;;18.92;28.15;94949.94;5077424;28;20385;-41
2020/12/15 08:40:58;;;;;;;9.77;6.82;;;;;;;18.82;28.30;94952.22;5077746;28;20051;-41
2020/12/15 08:43:25;;;;;;;9.98;7.68;;;;;;;18.81;28.58;94951.44;5077739;28;20443;-41
2020/12/15 08:45:53;;;;;;;9.75;7.55;;;;;;;18.52;29.28;94952.25;5077312;28;20079;-41
2020/12/15 08:48:22;;;;;;;10.60;7.35;;;;;;;18.44;29.88;94951.19;5077045;28;20056;-41
2020/12/15 08:50:50;;;;;;;9.60;8.00;;;;;;;18.87;28.72;94952.78;5077638;28;20075;-41
2020/12/15 08:53:20;;;;;;;13.45;11.30;;;;;;;18.00;31.55;94952.53;5077650;28;20052;-41
2020/12/15 08:55:48;;;;;;;13.88;10.77;;;;;;;17.78;31.69;94952.78;5077044;28;20048;-41
2020/12/15 08:58:15;;;;;;;15.75;10.70;;;;;;;17.67;32.30;94949.69;5077014;28;20044;-42
2020/12/15 09:00:47;;;;;;;13.15;10.63;;;;;;;17.85;32.45;94953.06;5077118;28;20045;-42
2020/12/15 09:03:15;;;;;;;13.35;10.77;;;;;;;18.05;31.37;94952.34;5077362;28;20388;-41
2020/12/15 09:05:56;;;;;;;12.48;9.52;;;;;;;18.06;31.97;94947.84;5096197;28;20058;-41
2020/12/15 09:08:25;;;;;;;13.20;10.75;;;;;;;18.63;31.18;94952.66;5096534;28;20044;-41
2020/12/15 09:10:54;;;;;;;11.98;10.32;;;;;;;18.68;31.55;94952.47;5092311;28;20044;-41
2020/12/15 09:13:22;;;;;;;12.90;10.77;;;;;;;18.80;30.79;94941.94;5076990;28;20060;-41
2020/12/15 09:15:56;;;;;;;13.18;10.95;;;;;;;18.54;30.32;94959.88;5076640;28;20063;-41
2020/12/15 09:18:36;;;;;;;12.65;11.07;;;;;;;18.38;31.02;94952.47;5076615;28;20059;-41
2020/12/15 09:21:14;;;;;;;13.13;10.55;;;;;;;18.23;31.41;94949.63;5081059;28;20047;-41
2020/12/15 09:23:52;;;;;;;12.35;10.40;;;;;;;18.15;30.94;94953.84;5096961;28;20043;-41
2020/12/15 09:26:21;;;;;;;10.10;8.57;;;;;;;18.33;30.71;94950.03;5096578;28;20055;-41
2020/12/15 09:28:49;;;;;;;9.57;8.27;;;;;;;18.23;30.58;94949.63;5095110;28;20822;-41
2020/12/15 09:31:17;;;;;;;11.05;7.38;;;;;;;17.99;30.85;94950.22;5076541;28;20052;-41
2020/12/15 09:33:44;;;;;;;9.70;8.05;;;;;;;17.99;31.28;94947.56;5076191;28;20340;-41
2020/12/15 09:36:13;;;;;;;12.07;8.85;;;;;;;18.01;30.91;94942.72;5076259;28;20343;-41
2020/12/15 09:38:40;;;;;;;10.93;9.50;;;;;;;18.43;30.26;94944.34;5076203;28;20363;-41
2020/12/15 09:41:08;;;;;;;12.50;10.48;;;;;;;18.15;31.25;94937.97;5076397;28;20379;-42
2020/12/15 09:43:35;;;;;;;12.13;10.27;;;;;;;18.33;30.86;94939.44;5076119;28;20052;-42
2020/12/15 09:46:04;;;;;;;12.00;9.30;;;;;;;18.31;30.73;94941.63;5076129;28;20059;-42
2020/12/15 09:48:31;;;;;;;10.35;8.75;;;;;;;18.59;30.87;94930.53;5075928;28;20048;-42
2020/12/15 09:50:59;;;;;;;11.73;9.63;;;;;;;18.63;30.70;94928.81;5076100;28;20051;-41
2020/12/15 09:53:26;;;;;;;14.80;10.88;;;;;;;18.80;30.74;94931.34;5076208;28;20048;-42
2020/12/15 09:55:54;;;;;;;11.55;10.32;;;;;;;18.45;31.14;94931.56;5075673;28;20048;-41
2020/12/15 09:58:21;;;;;;;11.23;10.02;;;;;;;18.25;31.39;94927.03;5075750;28;20040;-41
2020/12/15 10:00:49;;;;;;;11.52;10.25;;;;;;;18.42;31.23;94931.44;5075995;28;20044;-41
2020/12/15 10:03:16;;;;;;;13.73;12.18;;;;;;;18.32;31.15;94924.66;5076047;28;20049;-41
2020/12/15 10:05:45;;;;;;;12.98;11.05;;;;;;;18.28;30.97;94926.41;5095417;28;20332;-41
2020/12/15 10:08:13;;;;;;;14.38;11.65;;;;;;;18.60;30.79;94921.50;5095261;28;20450;-41
2020/12/15 10:10:40;;;;;;;12.75;10.85;;;;;;;18.55;30.85;94927.78;5096203;28;20350;-41
2020/12/15 10:13:08;;;;;;;12.57;10.88;;;;;;;18.55;30.66;94919.06;5095169;28;20055;-42
2020/12/15 10:15:35;;;;;;;13.70;11.32;;;;;;;18.88;30.98;94917.25;5081192;28;20048;-42
2020/12/15 10:18:04;;;;;;;12.65;10.90;;;;;;;19.05;30.38;94919.75;5075471;28;20074;-41
2020/12/15 10:20:31;;;;;;;13.02;10.90;;;;;;;19.24;30.56;94923.78;5075844;28;20375;-41
2020/12/15 10:22:58;;;;;;;13.60;9.98;;;;;;;19.53;30.45;94926.34;5075687;28;20363;-41
2020/12/15 10:25:25;;;;;;;12.77;9.88;;;;;;;19.62;30.27;94927.00;5075691;28;20052;-41
2020/12/15 10:27:52;;;;;;;10.60;9.50;;;;;;;19.40;29.31;94922.06;5057490;28;20479;-41
2020/12/15 10:30:19;;;;;;;14.00;10.25;;;;;;;19.26;29.31;94921.59;5075407;28;20052;-41
2020/12/15 10:32:46;;;;;;;13.68;11.13;;;;;;;19.40;29.73;94922.84;5075369;28;20379;-41
2020/12/15 10:35:14;;;;;;;10.65;8.63;;;;;;;19.46;29.75;94918.09;5090516;28;20052;-41
2020/12/15 10:37:41;;;;;;;9.63;7.88;;;;;;;19.37;29.96;94930.69;5095279;28;20055;-41
2020/12/15 10:40:08;;;;;;;8.52;7.63;;;;;;;19.18;29.87;94919.78;5095663;28;20048;-42
2020/12/15 10:42:36;;;;;;;8.88;6.80;;;;;;;18.95;30.86;94909.56;5095489;28;20394;-42
2020/12/15 10:45:04;;;;;;;7.32;6.63;;;;;;;18.73;30.87;94915.19;5095535;28;20048;-41
2020/12/15 10:47:31;;;;;;;8.02;6.20;;;;;;;18.77;30.20;94910.81;5095129;28;20055;-41
2020/12/15 10:49:58;;;;;;;7.10;6.13;;;;;;;18.83;30.37;94908.75;5095415;28;20063;-42
2020/12/15 10:52:25;;;;;;;7.82;6.65;;;;;;;18.79;30.50;94908.63;5095424;28;20044;-41
2020/12/15 10:54:52;;;;;;;8.70;6.50;;;;;;;18.65;30.89;94902.81;5095458;28;20044;-42
2020/12/15 10:57:20;;;;;;;7.13;6.22;;;;;;;18.72;30.51;94895.09;5094985;28;20048;-41
2020/12/15 10:59:47;;;;;;;7.60;6.20;;;;;;;18.86;30.09;94897.50;5095510;28;20051;-42
2020/12/15 11:02:17;;;;;;;7.75;6.38;;;;;;;18.76;30.41;94888.84;5095340;28;20451;-41
2020/12/15 11:04:44;;;;;;;8.68;6.70;;;;;;;19.17;30.26;94887.22;5083550;28;20071;-41
2020/12/15 11:07:11;;;;;;;6.75;5.95;;;;;;;19.44;30.10;94887.72;5074703;28;20052;-42
2020/12/15 11:09:38;;;;;;;6.63;5.90;;;;;;;19.31;30.77;94882.41;5075188;28;20056;-41
2020/12/15 11:12:06;;;;;;;7.13;6.43;;;;;;;19.51;30.29;94883.41;5075348;28;20052;-41
2020/12/15 11:14:34;;;;;;;7.18;5.97;;;;;;;19.90;29.97;94876.72;5075388;28;20363;-41
2020/12/15 11:17:02;;;;;;;7.78;5.90;;;;;;;20.23;28.87;94867.84;5073950;28;20061;-42
2020/12/15 11:19:29;;;;;;;8.60;5.18;;;;;;;20.12;29.08;94874.72;5074929;28;20045;-42
2020/12/15 11:21:56;;;;;;;24.17;19.08;;;;;;;20.32;28.98;94866.63;5074925;28;20056;-42
2020/12/15 11:24:24;;;;;;;11.68;8.45;;;;;;;20.73;28.56;94864.75;5076386;28;20056;-42
2020/12/15 11:26:51;;;;;;;8.60;6.43;;;;;;;20.98;28.47;94869.97;5078562;28;20055;-42
2020/12/15 11:29:18;;;;;;;8.85;6.53;;;;;;;20.96;27.78;94866.88;5078849;28;20052;-41
2020/12/15 11:31:49;;;;;;;6.68;5.53;;;;;;;20.71;28.02;94866.97;5078859;28;20056;-42
2020/12/15 11:34:17;;;;;;;7.28;5.45;;;;;;;20.76;27.91;94864.06;5078352;28;20052;-41
2020/12/15 11:36:44;;;;;;;7.18;4.88;;;;;;;21.01;27.22;94875.38;5078377;28;20048;-42
2020/12/15 11:39:11;;;;;;;6.28;5.30;;;;;;;21.32;28.07;94864.06;5078962;28;20040;-42
2020/12/15 11:41:39;;;;;;;8.30;7.40;;;;;;;21.30;27.05;94876.16;5078631;28;20059;-42
2020/12/15 11:44:06;;;;;;;9.07;7.47;;;;;;;21.26;26.93;94868.09;5078460;28;20497;-42
2020/12/15 11:46:33;;;;;;;9.35;7.63;;;;;;;21.22;27.82;94870.63;5077993;28;20064;-41